Gabdulla Tukay — UBUN2 — position and weather

sailwx.info

Track history (hours):
 
Tides and Currents Weather Stations Pressure Air Temp Water Temp Dewpoint Dewpoint Depression Visibility Wind Speed Wind Dir Waves Ship Positions

Gabdulla Tukay

Last reported at 2018-Feb-18 03:18 UTC. Time now 2018-Feb-20 05:48 UTC.
Position N 46°21' E 030°55'.

Length 140 m; draft 4.4 m.

Type: Cargo ship. MMSI: 273381900.

Date/timePositionNaut miles runAvg speedWind from/ knotsBaromVisibWave heightAir tempDewpointWater temp
2018-Feb-18 03:18N 46°21' E 030°55'3 8.7
2018-Feb-18 03:00N 46°23' E 030°55'5 8.7
2018-Feb-18 02:26N 46°28' E 030°55'4 8.6
2018-Feb-18 02:00N 46°32' E 030°56'23 8.1
2018-Feb-17 23:07N 46°36' E 031°29'4 7.9
2018-Feb-17 22:38N 46°35' E 031°35'7 8.7
2018-Feb-17 21:53N 46°36' E 031°44'3 8.3
2018-Feb-17 21:30N 46°36' E 031°49'4 8.5
2018-Feb-17 21:00N 46°38' E 031°54'4 7.9
2018-Feb-17 20:30N 46°42' E 031°56'4 7.4
2018-Feb-17 20:00N 46°45' E 031°54'4 7.9
2018-Feb-17 19:30N 46°49' E 031°54'4 8.5
2018-Feb-17 19:00N 46°52' E 031°59'4 8.1
2018-Feb-17 18:30N 46°56' E 032°01'1 1.5
2018-Feb-17 17:58N 46°56' E 032°01'0 0.0
2018-Feb-17 17:25N 46°56' E 032°01'0 0.0
2018-Feb-17 16:58N 46°56' E 032°01'0 0.0
2018-Feb-17 16:25N 46°56' E 032°01'0 0.0
2018-Feb-17 15:58N 46°56' E 032°01'0 0.0
2018-Feb-17 15:29N 46°56' E 032°01'0 0.0
2018-Feb-17 14:58N 46°56' E 032°01'0 0.0
2018-Feb-17 14:28N 46°56' E 032°01'0 0.0
2018-Feb-17 13:58N 46°56' E 032°01'0 0.0
2018-Feb-17 13:28N 46°56' E 032°01'0 0.0
2018-Feb-17 13:00N 46°56' E 032°01'0 0.0
2018-Feb-17 12:29N 46°56' E 032°01'0 0.0
2018-Feb-17 11:55N 46°56' E 032°01'0 0.0
2018-Feb-17 11:28N 46°56' E 032°01'0 0.0
2018-Feb-17 11:00N 46°56' E 032°01'0 0.0
2018-Feb-17 10:28N 46°56' E 032°01'0 0.0
2018-Feb-17 09:56N 46°56' E 032°01'0 0.0
2018-Feb-17 09:30N 46°56' E 032°01'0 0.0
2018-Feb-17 08:59N 46°56' E 032°01'0 0.0
2018-Feb-17 08:28N 46°56' E 032°01'0 0.0
2018-Feb-17 07:58N 46°56' E 032°01'0 0.0
2018-Feb-17 07:28N 46°56' E 032°01'0 0.0
2018-Feb-17 06:58N 46°56' E 032°01'0 0.0
2018-Feb-17 06:28N 46°56' E 032°01'0 0.0
2018-Feb-17 05:58N 46°56' E 032°01'0 0.0
2018-Feb-17 05:21N 46°56' E 032°01'0 0.0
2018-Feb-17 05:00N 46°56' E 032°01'0 0.0
2018-Feb-17 04:28N 46°56' E 032°01'0 0.0
2018-Feb-17 03:58N 46°56' E 032°01'0 0.0
2018-Feb-17 03:28N 46°56' E 032°01'0 0.0
2018-Feb-17 02:58N 46°56' E 032°01'0 0.0
2018-Feb-17 02:28N 46°56' E 032°01'0 0.0
2018-Feb-17 01:55N 46°56' E 032°01'0 0.0
2018-Feb-17 01:30N 46°56' E 032°01'0 0.0
2018-Feb-17 01:00N 46°56' E 032°01'0 0.0
2018-Feb-17 00:25N 46°56' E 032°01'0 0.0
2018-Feb-16 23:59N 46°56' E 032°01'0 0.0
2018-Feb-16 23:29N 46°56' E 032°01'0 0.0
2018-Feb-16 22:59N 46°56' E 032°01'0 0.0
2018-Feb-16 22:29N 46°56' E 032°01'0 0.0
2018-Feb-16 22:00N 46°56' E 032°01'0 0.0
2018-Feb-16 21:28N 46°56' E 032°01'0 0.0
2018-Feb-16 20:58N 46°56' E 032°01'0 0.0
2018-Feb-16 20:28N 46°56' E 032°01'0 0.0
2018-Feb-16 19:58N 46°56' E 032°01'1 0.2
2018-Feb-16 15:04N 46°56' E 031°60'0 0.1
2018-Feb-16 15:01N 46°56' E 031°60'0 0.0
2018-Feb-16 14:29N 46°56' E 031°60'0 0.0
2018-Feb-16 13:58N 46°56' E 031°60'0 0.0
2018-Feb-16 13:28N 46°56' E 031°60'0 0.0
2018-Feb-16 12:58N 46°56' E 031°60'0 0.0
2018-Feb-16 12:31N 46°56' E 031°60'0 0.0
2018-Feb-16 12:01N 46°56' E 031°60'0 0.0
2018-Feb-16 11:31N 46°56' E 031°60'0 0.0
2018-Feb-16 11:01N 46°56' E 031°60'0 0.0
2018-Feb-16 10:23N 46°56' E 031°60'0 0.1
2018-Feb-16 09:56N 46°56' E 031°60'0 0.1
2018-Feb-16 09:31N 46°56' E 031°60'0 0.1
2018-Feb-16 08:58N 46°56' E 031°60'0 0.0
2018-Feb-16 08:29N 46°56' E 031°60'0 0.0
2018-Feb-16 07:54N 46°56' E 031°60'0 0.1
2018-Feb-16 07:27N 46°56' E 031°60'0 0.1
2018-Feb-16 06:59N 46°56' E 031°60'0 0.0
2018-Feb-16 06:29N 46°56' E 031°60'0 0.0
2018-Feb-16 05:59N 46°56' E 031°60'0 0.0
2018-Feb-16 05:29N 46°56' E 031°60'0 0.0
2018-Feb-16 04:59N 46°56' E 031°60'0 0.0
2018-Feb-16 04:28N 46°56' E 031°60'0 0.0
2018-Feb-16 03:58N 46°56' E 031°60'0 0.0
2018-Feb-16 03:28N 46°56' E 031°60'0 0.0
2018-Feb-16 02:58N 46°56' E 031°60'0 0.0
2018-Feb-16 02:27N 46°56' E 031°60'0 0.0
2018-Feb-16 02:01N 46°56' E 031°60'0 0.0
2018-Feb-16 01:28N 46°56' E 031°60'0 0.0
2018-Feb-16 00:58N 46°56' E 031°60'0 0.1
2018-Feb-16 00:28N 46°56' E 031°60'0 0.1
2018-Feb-16 00:01N 46°56' E 031°60'0 0.0
2018-Feb-15 23:08N 46°56' E 031°60'0 0.0
2018-Feb-15 22:59N 46°56' E 031°60'0 0.0
2018-Feb-15 22:26N 46°56' E 031°60'1 1.3
2018-Feb-15 22:00N 46°56' E 032°01'4 7.1
2018-Feb-15 21:30N 46°53' E 031°59'5 9.1
2018-Feb-15 21:00N 46°49' E 031°55'4 8.3
2018-Feb-15 20:30N 46°45' E 031°54'4 8.1
2018-Feb-15 20:00N 46°42' E 031°56'4 8.5
2018-Feb-15 19:30N 46°38' E 031°54'4 8.3
2018-Feb-15 19:00N 46°36' E 031°48'5 8.9
2018-Feb-15 18:30N 46°36' E 031°42'29 5.7
2018-Feb-15 13:25N 46°33' E 030°60'3 6.5
2018-Feb-15 13:00N 46°32' E 030°57'3 6.0
2018-Feb-15 12:30N 46°29' E 030°57'4 8.1
2018-Feb-15 11:59N 46°25' E 030°57'5 9.1
2018-Feb-15 11:26N 46°20' E 030°57'334 7.4
2018-Feb-13 14:23N 40°57' E 028°60'3 4.8
2018-Feb-13 13:42N 40°54' E 029°01'2 5.7
2018-Feb-13 13:21N 40°52' E 029°02'3 5.7
2018-Feb-13 12:47N 40°48' E 029°02'2 5.5
2018-Feb-13 12:30N 40°47' E 029°02'2 3.7
2018-Feb-13 11:59N 40°47' E 029°05'4 8.2
2018-Feb-13 11:30N 40°49' E 029°10'4 7.9
2018-Feb-13 11:00N 40°51' E 029°14'2 4.3
2018-Feb-13 10:30N 40°50' E 029°17'0 0.0
2018-Feb-13 09:51N 40°50' E 029°17'0 0.0
2018-Feb-13 09:30N 40°50' E 029°17'0 0.0
2018-Feb-13 09:00N 40°50' E 029°17'0 0.0
2018-Feb-13 08:18N 40°50' E 029°17'0 0.0
2018-Feb-13 08:00N 40°50' E 029°17'0 0.0
2018-Feb-13 07:30N 40°50' E 029°17'0 0.0
2018-Feb-13 06:55N 40°50' E 029°17'0 0.0
2018-Feb-13 06:29N 40°50' E 029°17'0 0.0
2018-Feb-13 06:00N 40°50' E 029°17'0 0.0
2018-Feb-13 05:28N 40°50' E 029°17'0 0.0
2018-Feb-13 04:57N 40°50' E 029°17'0 0.0
2018-Feb-13 04:25N 40°50' E 029°17'0 0.0
2018-Feb-13 03:57N 40°50' E 029°17'0 0.0
2018-Feb-13 03:29N 40°50' E 029°17'0 0.0
2018-Feb-13 02:55N 40°50' E 029°17'0 0.0
2018-Feb-13 02:26N 40°50' E 029°17'0 0.0
2018-Feb-13 01:52N 40°50' E 029°17'0 0.0
2018-Feb-13 01:29N 40°50' E 029°17'0 0.0
2018-Feb-13 00:59N 40°50' E 029°17'0 0.0
2018-Feb-13 00:27N 40°50' E 029°17'0 0.0
2018-Feb-12 23:59N 40°50' E 029°17'0 0.0
2018-Feb-12 23:30N 40°50' E 029°17'0 0.0
2018-Feb-12 22:52N 40°50' E 029°17'0 0.0
2018-Feb-12 22:23N 40°50' E 029°17'0 0.0
2018-Feb-12 22:00N 40°50' E 029°17'0 0.0
2018-Feb-12 21:21N 40°50' E 029°17'0 0.0
2018-Feb-12 20:54N 40°50' E 029°17'0 0.0
2018-Feb-12 20:26N 40°50' E 029°17'0 0.0
2018-Feb-12 20:00N 40°50' E 029°17'0 0.0
2018-Feb-12 19:29N 40°50' E 029°17'0 0.0
2018-Feb-12 18:58N 40°50' E 029°17'0 0.0
2018-Feb-12 18:29N 40°50' E 029°17'0 0.0
2018-Feb-12 17:59N 40°50' E 029°17'0 0.0
2018-Feb-12 17:30N 40°50' E 029°17'0 0.0
2018-Feb-12 16:56N 40°50' E 029°17'0 0.0
2018-Feb-12 16:18N 40°50' E 029°17'0 0.0
2018-Feb-12 15:02N 40°50' E 029°17'0 0.0
2018-Feb-12 14:56N 40°50' E 029°17'0 0.0
2018-Feb-12 14:26N 40°50' E 029°17'0 0.0
2018-Feb-12 13:58N 40°50' E 029°17'0 0.0
2018-Feb-12 13:28N 40°50' E 029°17'0 0.0
2018-Feb-12 12:54N 40°50' E 029°17'0 0.0
2018-Feb-12 12:28N 40°50' E 029°17'0 0.0
2018-Feb-12 11:48N 40°50' E 029°17'0 0.0
2018-Feb-12 11:28N 40°50' E 029°17'0 0.0
2018-Feb-12 11:00N 40°50' E 029°17'0 0.0
2018-Feb-12 10:23N 40°50' E 029°17'0 0.0
2018-Feb-12 10:00N 40°50' E 029°17'0 0.0
2018-Feb-12 09:31N 40°50' E 029°17'0 0.0
2018-Feb-12 09:00N 40°50' E 029°17'1 2.5
2018-Feb-12 08:30N 40°51' E 029°16'2 4.6
2018-Feb-12 08:00N 40°51' E 029°13'1 1.7
2018-Feb-12 07:29N 40°50' E 029°12'0 0.0
2018-Feb-12 06:57N 40°50' E 029°12'0 0.0
2018-Feb-12 05:49N 40°50' E 029°12'0 0.1
2018-Feb-12 05:28N 40°50' E 029°12'0 0.0
2018-Feb-12 03:58N 40°50' E 029°12'0 0.0
2018-Feb-12 03:21N 40°50' E 029°12'0 0.1
2018-Feb-12 02:59N 40°50' E 029°12'0 0.0
2018-Feb-12 02:23N 40°50' E 029°12'0 0.0
2018-Feb-12 01:53N 40°50' E 029°12'0 0.0
2018-Feb-12 01:22N 40°50' E 029°12'0 0.0
2018-Feb-12 00:50N 40°50' E 029°12'0 0.0
2018-Feb-12 00:26N 40°50' E 029°12'0 0.0
2018-Feb-12 00:00N 40°50' E 029°12'0 0.0
2018-Feb-11 23:13N 40°50' E 029°12'0 0.1
2018-Feb-11 22:39N 40°50' E 029°12'0 0.1
2018-Feb-11 22:22N 40°50' E 029°12'0 0.0
2018-Feb-11 21:37N 40°50' E 029°12'0 0.1
2018-Feb-11 21:27N 40°50' E 029°12'0 0.0
2018-Feb-11 20:23N 40°50' E 029°12'0 0.0
2018-Feb-11 19:59N 40°50' E 029°12'0 0.0
2018-Feb-11 19:27N 40°50' E 029°12'0 0.0
2018-Feb-11 18:15N 40°50' E 029°12'0 0.0
2018-Feb-11 18:00N 40°50' E 029°12'0 0.0
2018-Feb-11 16:44N 40°50' E 029°12'0 0.0
2018-Feb-11 16:15N 40°50' E 029°12'0 0.0
2018-Feb-11 15:49N 40°50' E 029°12'0 0.0
2018-Feb-11 15:20N 40°50' E 029°12'0 0.0
2018-Feb-11 14:56N 40°50' E 029°12'0 0.0
2018-Feb-11 14:10N 40°50' E 029°12'0 0.0
2018-Feb-11 13:53N 40°50' E 029°12'0 0.0
2018-Feb-11 13:29N 40°50' E 029°12'0 0.0
2018-Feb-11 12:47N 40°50' E 029°12'0 0.0
2018-Feb-11 12:24N 40°50' E 029°12'0 0.0
2018-Feb-11 11:50N 40°50' E 029°12'0 0.1
2018-Feb-11 11:30N 40°50' E 029°12'1 1.7
2018-Feb-11 11:00N 40°50' E 029°11'4 7.6
2018-Feb-11 10:30N 40°48' E 029°06'5 9.3
2018-Feb-11 10:00N 40°50' E 029°00'5 8.7
2018-Feb-11 09:25N 40°50' E 028°54'  
Track history (hours):
 
Tides and Currents Weather Stations Pressure Air Temp Water Temp Dewpoint Dewpoint Depression Visibility Wind Speed Wind Dir Waves Ship Positions

Gabdulla Tukay

Last reported at 2018-Feb-18 03:18 UTC. Time now 2018-Feb-20 05:48 UTC.
Position N 46°21' E 030°55'.

Length 140 m; draft 4.4 m.

Type: Cargo ship. MMSI: 273381900.

Date/timePositionNaut miles runAvg speedWind from/ knotsBaromVisibWave heightAir tempDewpointWater temp
2018-Feb-18 03:18N 46°21' E 030°55'3 8.7
2018-Feb-18 03:00N 46°23' E 030°55'5 8.7
2018-Feb-18 02:26N 46°28' E 030°55'4 8.6
2018-Feb-18 02:00N 46°32' E 030°56'23 8.1
2018-Feb-17 23:07N 46°36' E 031°29'4 7.9
2018-Feb-17 22:38N 46°35' E 031°35'7 8.7
2018-Feb-17 21:53N 46°36' E 031°44'3 8.3
2018-Feb-17 21:30N 46°36' E 031°49'4 8.5
2018-Feb-17 21:00N 46°38' E 031°54'4 7.9
2018-Feb-17 20:30N 46°42' E 031°56'4 7.4
2018-Feb-17 20:00N 46°45' E 031°54'4 7.9
2018-Feb-17 19:30N 46°49' E 031°54'4 8.5
2018-Feb-17 19:00N 46°52' E 031°59'4 8.1
2018-Feb-17 18:30N 46°56' E 032°01'1 1.5
2018-Feb-17 17:58N 46°56' E 032°01'0 0.0
2018-Feb-17 17:25N 46°56' E 032°01'0 0.0
2018-Feb-17 16:58N 46°56' E 032°01'0 0.0
2018-Feb-17 16:25N 46°56' E 032°01'0 0.0
2018-Feb-17 15:58N 46°56' E 032°01'0 0.0
2018-Feb-17 15:29N 46°56' E 032°01'0 0.0
2018-Feb-17 14:58N 46°56' E 032°01'0 0.0
2018-Feb-17 14:28N 46°56' E 032°01'0 0.0
2018-Feb-17 13:58N 46°56' E 032°01'0 0.0
2018-Feb-17 13:28N 46°56' E 032°01'0 0.0
2018-Feb-17 13:00N 46°56' E 032°01'0 0.0
2018-Feb-17 12:29N 46°56' E 032°01'0 0.0
2018-Feb-17 11:55N 46°56' E 032°01'0 0.0
2018-Feb-17 11:28N 46°56' E 032°01'0 0.0
2018-Feb-17 11:00N 46°56' E 032°01'0 0.0
2018-Feb-17 10:28N 46°56' E 032°01'0 0.0
2018-Feb-17 09:56N 46°56' E 032°01'0 0.0
2018-Feb-17 09:30N 46°56' E 032°01'0 0.0
2018-Feb-17 08:59N 46°56' E 032°01'0 0.0
2018-Feb-17 08:28N 46°56' E 032°01'0 0.0
2018-Feb-17 07:58N 46°56' E 032°01'0 0.0
2018-Feb-17 07:28N 46°56' E 032°01'0 0.0
2018-Feb-17 06:58N 46°56' E 032°01'0 0.0
2018-Feb-17 06:28N 46°56' E 032°01'0 0.0
2018-Feb-17 05:58N 46°56' E 032°01'0 0.0
2018-Feb-17 05:21N 46°56' E 032°01'0 0.0
2018-Feb-17 05:00N 46°56' E 032°01'0 0.0
2018-Feb-17 04:28N 46°56' E 032°01'0 0.0
2018-Feb-17 03:58N 46°56' E 032°01'0 0.0
2018-Feb-17 03:28N 46°56' E 032°01'0 0.0
2018-Feb-17 02:58N 46°56' E 032°01'0 0.0
2018-Feb-17 02:28N 46°56' E 032°01'0 0.0
2018-Feb-17 01:55N 46°56' E 032°01'0 0.0
2018-Feb-17 01:30N 46°56' E 032°01'0 0.0
2018-Feb-17 01:00N 46°56' E 032°01'0 0.0
2018-Feb-17 00:25N 46°56' E 032°01'0 0.0
2018-Feb-16 23:59N 46°56' E 032°01'0 0.0
2018-Feb-16 23:29N 46°56' E 032°01'0 0.0
2018-Feb-16 22:59N 46°56' E 032°01'0 0.0
2018-Feb-16 22:29N 46°56' E 032°01'0 0.0
2018-Feb-16 22:00N 46°56' E 032°01'0 0.0
2018-Feb-16 21:28N 46°56' E 032°01'0 0.0
2018-Feb-16 20:58N 46°56' E 032°01'0 0.0
2018-Feb-16 20:28N 46°56' E 032°01'0 0.0
2018-Feb-16 19:58N 46°56' E 032°01'1 0.2
2018-Feb-16 15:04N 46°56' E 031°60'0 0.1
2018-Feb-16 15:01N 46°56' E 031°60'0 0.0
2018-Feb-16 14:29N 46°56' E 031°60'0 0.0
2018-Feb-16 13:58N 46°56' E 031°60'0 0.0
2018-Feb-16 13:28N 46°56' E 031°60'0 0.0
2018-Feb-16 12:58N 46°56' E 031°60'0 0.0
2018-Feb-16 12:31N 46°56' E 031°60'0 0.0
2018-Feb-16 12:01N 46°56' E 031°60'0 0.0
2018-Feb-16 11:31N 46°56' E 031°60'0 0.0
2018-Feb-16 11:01N 46°56' E 031°60'0 0.0
2018-Feb-16 10:23N 46°56' E 031°60'0 0.1
2018-Feb-16 09:56N 46°56' E 031°60'0 0.1
2018-Feb-16 09:31N 46°56' E 031°60'0 0.1
2018-Feb-16 08:58N 46°56' E 031°60'0 0.0
2018-Feb-16 08:29N 46°56' E 031°60'0 0.0
2018-Feb-16 07:54N 46°56' E 031°60'0 0.1
2018-Feb-16 07:27N 46°56' E 031°60'0 0.1
2018-Feb-16 06:59N 46°56' E 031°60'0 0.0
2018-Feb-16 06:29N 46°56' E 031°60'0 0.0
2018-Feb-16 05:59N 46°56' E 031°60'0 0.0
2018-Feb-16 05:29N 46°56' E 031°60'0 0.0
2018-Feb-16 04:59N 46°56' E 031°60'0 0.0
2018-Feb-16 04:28N 46°56' E 031°60'0 0.0
2018-Feb-16 03:58N 46°56' E 031°60'0 0.0
2018-Feb-16 03:28N 46°56' E 031°60'0 0.0
2018-Feb-16 02:58N 46°56' E 031°60'0 0.0
2018-Feb-16 02:27N 46°56' E 031°60'0 0.0
2018-Feb-16 02:01N 46°56' E 031°60'0 0.0
2018-Feb-16 01:28N 46°56' E 031°60'0 0.0
2018-Feb-16 00:58N 46°56' E 031°60'0 0.1
2018-Feb-16 00:28N 46°56' E 031°60'0 0.1
2018-Feb-16 00:01N 46°56' E 031°60'0 0.0
2018-Feb-15 23:08N 46°56' E 031°60'0 0.0
2018-Feb-15 22:59N 46°56' E 031°60'0 0.0
2018-Feb-15 22:26N 46°56' E 031°60'1 1.3
2018-Feb-15 22:00N 46°56' E 032°01'4 7.1
2018-Feb-15 21:30N 46°53' E 031°59'5 9.1
2018-Feb-15 21:00N 46°49' E 031°55'4 8.3
2018-Feb-15 20:30N 46°45' E 031°54'4 8.1
2018-Feb-15 20:00N 46°42' E 031°56'4 8.5
2018-Feb-15 19:30N 46°38' E 031°54'4 8.3
2018-Feb-15 19:00N 46°36' E 031°48'5 8.9
2018-Feb-15 18:30N 46°36' E 031°42'29 5.7
2018-Feb-15 13:25N 46°33' E 030°60'3 6.5
2018-Feb-15 13:00N 46°32' E 030°57'3 6.0
2018-Feb-15 12:30N 46°29' E 030°57'4 8.1
2018-Feb-15 11:59N 46°25' E 030°57'5 9.1
2018-Feb-15 11:26N 46°20' E 030°57'334 7.4
2018-Feb-13 14:23N 40°57' E 028°60'3 4.8
2018-Feb-13 13:42N 40°54' E 029°01'2 5.7
2018-Feb-13 13:21N 40°52' E 029°02'3 5.7
2018-Feb-13 12:47N 40°48' E 029°02'2 5.5
2018-Feb-13 12:30N 40°47' E 029°02'2 3.7
2018-Feb-13 11:59N 40°47' E 029°05'4 8.2
2018-Feb-13 11:30N 40°49' E 029°10'4 7.9
2018-Feb-13 11:00N 40°51' E 029°14'2 4.3
2018-Feb-13 10:30N 40°50' E 029°17'0 0.0
2018-Feb-13 09:51N 40°50' E 029°17'0 0.0
2018-Feb-13 09:30N 40°50' E 029°17'0 0.0
2018-Feb-13 09:00N 40°50' E 029°17'0 0.0
2018-Feb-13 08:18N 40°50' E 029°17'0 0.0
2018-Feb-13 08:00N 40°50' E 029°17'0 0.0
2018-Feb-13 07:30N 40°50' E 029°17'0 0.0
2018-Feb-13 06:55N 40°50' E 029°17'0 0.0
2018-Feb-13 06:29N 40°50' E 029°17'0 0.0
2018-Feb-13 06:00N 40°50' E 029°17'0 0.0
2018-Feb-13 05:28N 40°50' E 029°17'0 0.0
2018-Feb-13 04:57N 40°50' E 029°17'0 0.0
2018-Feb-13 04:25N 40°50' E 029°17'0 0.0
2018-Feb-13 03:57N 40°50' E 029°17'0 0.0
2018-Feb-13 03:29N 40°50' E 029°17'0 0.0
2018-Feb-13 02:55N 40°50' E 029°17'0 0.0
2018-Feb-13 02:26N 40°50' E 029°17'0 0.0
2018-Feb-13 01:52N 40°50' E 029°17'0 0.0
2018-Feb-13 01:29N 40°50' E 029°17'0 0.0
2018-Feb-13 00:59N 40°50' E 029°17'0 0.0
2018-Feb-13 00:27N 40°50' E 029°17'0 0.0
2018-Feb-12 23:59N 40°50' E 029°17'0 0.0
2018-Feb-12 23:30N 40°50' E 029°17'0 0.0
2018-Feb-12 22:52N 40°50' E 029°17'0 0.0
2018-Feb-12 22:23N 40°50' E 029°17'0 0.0
2018-Feb-12 22:00N 40°50' E 029°17'0 0.0
2018-Feb-12 21:21N 40°50' E 029°17'0 0.0
2018-Feb-12 20:54N 40°50' E 029°17'0 0.0
2018-Feb-12 20:26N 40°50' E 029°17'0 0.0
2018-Feb-12 20:00N 40°50' E 029°17'0 0.0
2018-Feb-12 19:29N 40°50' E 029°17'0 0.0
2018-Feb-12 18:58N 40°50' E 029°17'0 0.0
2018-Feb-12 18:29N 40°50' E 029°17'0 0.0
2018-Feb-12 17:59N 40°50' E 029°17'0 0.0
2018-Feb-12 17:30N 40°50' E 029°17'0 0.0
2018-Feb-12 16:56N 40°50' E 029°17'0 0.0
2018-Feb-12 16:18N 40°50' E 029°17'0 0.0
2018-Feb-12 15:02N 40°50' E 029°17'0 0.0
2018-Feb-12 14:56N 40°50' E 029°17'0 0.0
2018-Feb-12 14:26N 40°50' E 029°17'0 0.0
2018-Feb-12 13:58N 40°50' E 029°17'0 0.0
2018-Feb-12 13:28N 40°50' E 029°17'0 0.0
2018-Feb-12 12:54N 40°50' E 029°17'0 0.0
2018-Feb-12 12:28N 40°50' E 029°17'0 0.0
2018-Feb-12 11:48N 40°50' E 029°17'0 0.0
2018-Feb-12 11:28N 40°50' E 029°17'0 0.0
2018-Feb-12 11:00N 40°50' E 029°17'0 0.0
2018-Feb-12 10:23N 40°50' E 029°17'0 0.0
2018-Feb-12 10:00N 40°50' E 029°17'0 0.0
2018-Feb-12 09:31N 40°50' E 029°17'0 0.0
2018-Feb-12 09:00N 40°50' E 029°17'1 2.5
2018-Feb-12 08:30N 40°51' E 029°16'2 4.6
2018-Feb-12 08:00N 40°51' E 029°13'1 1.7
2018-Feb-12 07:29N 40°50' E 029°12'0 0.0
2018-Feb-12 06:57N 40°50' E 029°12'0 0.0
2018-Feb-12 05:49N 40°50' E 029°12'0 0.1
2018-Feb-12 05:28N 40°50' E 029°12'0 0.0
2018-Feb-12 03:58N 40°50' E 029°12'0 0.0
2018-Feb-12 03:21N 40°50' E 029°12'0 0.1
2018-Feb-12 02:59N 40°50' E 029°12'0 0.0
2018-Feb-12 02:23N 40°50' E 029°12'0 0.0
2018-Feb-12 01:53N 40°50' E 029°12'0 0.0
2018-Feb-12 01:22N 40°50' E 029°12'0 0.0
2018-Feb-12 00:50N 40°50' E 029°12'0 0.0
2018-Feb-12 00:26N 40°50' E 029°12'0 0.0
2018-Feb-12 00:00N 40°50' E 029°12'0 0.0
2018-Feb-11 23:13N 40°50' E 029°12'0 0.1
2018-Feb-11 22:39N 40°50' E 029°12'0 0.1
2018-Feb-11 22:22N 40°50' E 029°12'0 0.0
2018-Feb-11 21:37N 40°50' E 029°12'0 0.1
2018-Feb-11 21:27N 40°50' E 029°12'0 0.0
2018-Feb-11 20:23N 40°50' E 029°12'0 0.0
2018-Feb-11 19:59N 40°50' E 029°12'0 0.0
2018-Feb-11 19:27N 40°50' E 029°12'0 0.0
2018-Feb-11 18:15N 40°50' E 029°12'0 0.0
2018-Feb-11 18:00N 40°50' E 029°12'0 0.0
2018-Feb-11 16:44N 40°50' E 029°12'0 0.0
2018-Feb-11 16:15N 40°50' E 029°12'0 0.0
2018-Feb-11 15:49N 40°50' E 029°12'0 0.0
2018-Feb-11 15:20N 40°50' E 029°12'0 0.0
2018-Feb-11 14:56N 40°50' E 029°12'0 0.0
2018-Feb-11 14:10N 40°50' E 029°12'0 0.0
2018-Feb-11 13:53N 40°50' E 029°12'0 0.0
2018-Feb-11 13:29N 40°50' E 029°12'0 0.0
2018-Feb-11 12:47N 40°50' E 029°12'0 0.0
2018-Feb-11 12:24N 40°50' E 029°12'0 0.0
2018-Feb-11 11:50N 40°50' E 029°12'0 0.1
2018-Feb-11 11:30N 40°50' E 029°12'1 1.7
2018-Feb-11 11:00N 40°50' E 029°11'4 7.6
2018-Feb-11 10:30N 40°48' E 029°06'5 9.3
2018-Feb-11 10:00N 40°50' E 029°00'5 8.7
2018-Feb-11 09:25N 40°50' E 028°54'  

Dump ship's entire track history